^^
Grace C. Lehan Memorial Weather Station Historical Data
Daily Summary for November 23, 2021 Units:  English    Metric   Both
Daily Weekly Monthly Yearly
  High: Low: Average:
Temperature: 41.4 °F 29.5 °F 34.2 °F
Dew Point: 26.7 °F 17.6 °F 21.7 °F
Humidity: 81% 39% 61%
Wind Speed: 12mph 0mph 3.3mph
Wind Gust: 26mph - -
Wind- - NW
Pressure: 30.10 in 29.85 in -
Precipitation: 0.00 in    
 
 
Tabular Data for November 23, 2021
Time Temperature Dew Point Pressure Wind Wind Speed Wind Gust Humidity Rainfall Rate (Hourly) solar
00:04 34.5 °F 25.1 °F 29.86 in NW 1.4 mph 6 mph 68% 0.00 in 0 W/m2
00:09 34.4 °F 24.9 °F 29.86 in NNW 0.9 mph 6 mph 67.8% 0.00 in 0 W/m2
00:14 34.3 °F 24.9 °F 29.86 in NW 1.7 mph 6 mph 68% 0.00 in 0 W/m2
00:19 34.3 °F 24.8 °F 29.86 in NW 0.9 mph 6 mph 68% 0.00 in 0 W/m2
00:24 34.2 °F 24.7 °F 29.86 in NW 2.6 mph 9 mph 68% 0.00 in 0 W/m2
00:29 34.2 °F 24.7 °F 29.86 in NW 1.3 mph 9 mph 68% 0.00 in 0 W/m2
00:34 34.2 °F 24.7 °F 29.86 in NW 3.5 mph 9 mph 68% 0.00 in 0 W/m2
00:39 34.2 °F 24.8 °F 29.87 in NW 2.2 mph 11 mph 68% 0.00 in 0 W/m2
00:44 34.3 °F 24.7 °F 29.87 in NW 3 mph 11 mph 67.5% 0.00 in 0 W/m2
00:49 34.4 °F 24.6 °F 29.87 in NW 2.6 mph 11 mph 67% 0.00 in 0 W/m2
00:54 34.4 °F 24.6 °F 29.87 in NW 1.8 mph 11 mph 67% 0.00 in 0 W/m2
00:59 34.4 °F 24.6 °F 29.86 in NW 2.6 mph 11 mph 67% 0.00 in 0 W/m2
01:04 34.4 °F 24.6 °F 29.87 in WNW 3 mph 11 mph 67% 0.00 in 0 W/m2
01:09 34.4 °F 24.6 °F 29.86 in NW 2.1 mph 10 mph 67% 0.00 in 0 W/m2
01:14 34.4 °F 24.6 °F 29.86 in WNW 2.8 mph 10 mph 67% 0.00 in 0 W/m2
01:19 34.3 °F 24.6 °F 29.86 in WNW 2.2 mph 10 mph 67.3% 0.00 in 0 W/m2
01:24 34.3 °F 24.8 °F 29.86 in NW 2.6 mph 11 mph 68% 0.00 in 0 W/m2
01:29 34.2 °F 24.8 °F 29.86 in NW 3.7 mph 11 mph 68% 0.00 in 0 W/m2
01:34 34.2 °F 24.8 °F 29.86 in NW 3.7 mph 11 mph 68% 0.00 in 0 W/m2
01:39 34.1 °F 24.7 °F 29.85 in WNW 1.6 mph 11 mph 68% 0.00 in 0 W/m2
01:44 34.1 °F 24.6 °F 29.85 in NW 1.6 mph 11 mph 68% 0.00 in 0 W/m2
01:49 33.9 °F 24.6 °F 29.86 in WNW 1.5 mph 11 mph 68.2% 0.00 in 0 W/m2
01:54 33.8 °F 24.8 °F 29.86 in NW 2 mph 11 mph 69% 0.00 in 0 W/m2
01:59 33.8 °F 24.7 °F 29.86 in NW 1.4 mph 11 mph 69% 0.00 in 0 W/m2
02:04 33.7 °F 24.6 °F 29.87 in NW 1.4 mph 11 mph 69% 0.00 in 0 W/m2
02:09 33.7 °F 24.6 °F 29.87 in NW 0.2 mph 6 mph 69.1% 0.00 in 0 W/m2
02:14 33.6 °F 24.8 °F 29.87 in NW 1 mph 7 mph 70% 0.00 in 0 W/m2
02:19 33.5 °F 24.7 °F 29.87 in NW 0.2 mph 7 mph 70% 0.00 in 0 W/m2
02:24 33.4 °F 24.7 °F 29.87 in NW 0.4 mph 7 mph 70% 0.00 in 0 W/m2
02:29 33.3 °F 24.6 °F 29.87 in Calm   7 mph 70% 0.00 in 0 W/m2
02:34 33.2 °F 24.5 °F 29.87 in Calm   7 mph 70% 0.00 in 0 W/m2
02:39 33 °F 24.4 °F 29.87 in Calm     70.2% 0.00 in 0 W/m2
02:44 32.9 °F 24.4 °F 29.87 in Calm     70.8% 0.00 in 0 W/m2
02:49 32.7 °F 24.4 °F 29.87 in Calm     71% 0.00 in 0 W/m2
02:54 32.6 °F 24.6 °F 29.87 in Calm     72% 0.00 in 0 W/m2
02:59 32.4 °F 24.6 °F 29.87 in Calm     72.6% 0.00 in 0 W/m2
03:04 32.3 °F 24.6 °F 29.87 in Calm     73% 0.00 in 0 W/m2
03:09 32.1 °F 24.5 °F 29.88 in Calm     73% 0.00 in 0 W/m2
03:14 32 °F 24.7 °F 29.88 in Calm     74% 0.00 in 0 W/m2
03:19 31.8 °F 24.5 °F 29.88 in Calm     74.1% 0.00 in 0 W/m2
03:24 31.5 °F 24.5 °F 29.87 in Calm     75% 0.00 in 0 W/m2
03:29 31.3 °F 24.3 °F 29.88 in Calm     75% 0.00 in 0 W/m2
03:34 31 °F 24.2 °F 29.88 in Calm     75.4% 0.00 in 0 W/m2
03:39 30.9 °F 24.2 °F 29.88 in Calm     76% 0.00 in 0 W/m2
03:44 30.8 °F 24.2 °F 29.88 in Calm     76.1% 0.00 in 0 W/m2
03:49 30.7 °F 24.4 °F 29.88 in Calm     77% 0.00 in 0 W/m2
03:54 30.6 °F 24.3 °F 29.88 in Calm     77% 0.00 in 0 W/m2
03:59 30.5 °F 24.3 °F 29.88 in Calm     77.5% 0.00 in 0 W/m2
04:00 30.4 °F 24.4 °F 29.87 in Calm     78% 0.00 in 0 W/m2
04:09 30.2 °F 24.4 °F 29.87 in Calm     78.7% 0.00 in 0 W/m2
04:14 30.1 °F 24.4 °F 29.87 in Calm     79% 0.00 in 0 W/m2
04:19 30 °F 24.3 °F 29.87 in Calm     79% 0.00 in 0 W/m2
04:24 29.9 °F 24.2 °F 29.88 in Calm     79% 0.00 in 0 W/m2
04:29 29.9 °F 24.3 °F 29.88 in Calm     79.2% 0.00 in 0 W/m2
04:34 29.8 °F 24.4 °F 29.88 in Calm     80% 0.00 in 0 W/m2
04:39 29.8 °F 24.4 °F 29.88 in Calm     80% 0.00 in 0 W/m2
04:44 29.7 °F 24.3 °F 29.88 in NW 0.1 mph 3 mph 80% 0.00 in 0 W/m2
04:49 29.7 °F 24.3 °F 29.88 in Calm   3 mph 80% 0.00 in 0 W/m2
04:54 29.6 °F 24.3 °F 29.88 in Calm   3 mph 80.3% 0.00 in 0 W/m2
04:59 29.6 °F 24.5 °F 29.88 in Calm   3 mph 81% 0.00 in 0 W/m2
05:04 29.5 °F 24.4 °F 29.88 in Calm   3 mph 81% 0.00 in 0 W/m2
05:09 29.5 °F 24.4 °F 29.88 in NW 0.1 mph 3 mph 81% 0.00 in 0 W/m2
05:14 29.5 °F 24.3 °F 29.88 in Calm   3 mph 80.7% 0.00 in 0 W/m2
05:19 29.6 °F 24.5 °F 29.88 in Calm   3 mph 81% 0.00 in 0 W/m2
05:24 29.5 °F 24.4 °F 29.88 in Calm   3 mph 81% 0.00 in 0 W/m2
05:29 29.5 °F 24.4 °F 29.89 in NW 0.1 mph 3 mph 81% 0.00 in 0 W/m2
05:34 29.5 °F 24.4 °F 29.89 in NW 0.1 mph 3 mph 81% 0.00 in 0 W/m2
05:39 29.5 °F 24.4 °F 29.89 in Calm   2 mph 81% 0.00 in 0 W/m2
05:44 29.5 °F 24.3 °F 29.89 in NW 0.1 mph 2 mph 80.8% 0.00 in 0 W/m2
05:49 29.5 °F 24.1 °F 29.89 in Calm   2 mph 80% 0.00 in 0 W/m2
05:54 29.5 °F 24.1 °F 29.89 in NW 0.4 mph 4 mph 80% 0.00 in 0 W/m2
05:59 29.6 °F 24.2 °F 29.90 in NW 0.3 mph 4 mph 80% 0.00 in 0 W/m2
06:04 29.6 °F 24.2 °F 29.90 in Calm   4 mph 80% 0.00 in 0 W/m2
06:09 29.7 °F 24.2 °F 29.90 in NW 0.4 mph 4 mph 79.9% 0.00 in 0 W/m2
06:14 29.7 °F 24.1 °F 29.90 in NW 0.2 mph 4 mph 79.3% 0.00 in 0 W/m2
06:19 29.7 °F 24 °F 29.90 in NW 1.3 mph 5 mph 79% 0.00 in 0 W/m2
06:24 29.9 °F 24.1 °F 29.90 in NW 1 mph 5 mph 78.8% 0.00 in 0 W/m2
06:29 30 °F 23.9 °F 29.91 in NW 0.7 mph 5 mph 78% 0.00 in 0 W/m2
06:34 30.1 °F 24.1 °F 29.91 in NW 0.2 mph 5 mph 78% 0.00 in 0 W/m2
06:39 30.1 °F 23.8 °F 29.91 in NW 0.3 mph 3 mph 77.1% 0.00 in 0 W/m2
06:44 30.2 °F 23.8 °F 29.91 in NW 0.1 mph 3 mph 77% 0.00 in 0 W/m2
06:49 30.2 °F 23.9 °F 29.91 in NW 0.3 mph 6 mph 77% 0.00 in 0 W/m2
06:54 30.2 °F 23.8 °F 29.91 in NW 0.4 mph 6 mph 77% 0.00 in 0 W/m2
06:59 30.1 °F 23.8 °F 29.91 in NW 0.9 mph 6 mph 77% 0.00 in 5 W/m2
07:04 30.1 °F 23.8 °F 29.91 in Calm   6 mph 77% 0.00 in 7 W/m2
07:09 30.1 °F 23.8 °F 29.92 in Calm   1 mph 77% 0.00 in 9 W/m2
07:14 30.1 °F 23.8 °F 29.92 in NW 0.5 mph 2 mph 77% 0.00 in 11 W/m2
07:19 30.1 °F 23.8 °F 29.92 in NW 0.3 mph 2 mph 77% 0.00 in 14 W/m2
07:24 30.1 °F 23.8 °F 29.92 in Calm   2 mph 77% 0.00 in 26 W/m2
07:29 30.1 °F 23.8 °F 29.92 in NW 1.1 mph 4 mph 77% 0.00 in 35 W/m2
07:34 30.3 °F 24.3 °F 29.92 in NW 0.1 mph 4 mph 78% 0.00 in 44 W/m2
07:39 30.6 °F 24.4 °F 29.93 in NW 0.6 mph 4 mph 77.6% 0.00 in 98 W/m2
07:44 31 °F 24.7 °F 29.93 in Calm   4 mph 77% 0.00 in 84 W/m2
07:49 31.7 °F 25.2 °F 29.93 in Calm   4 mph 76.4% 0.00 in 47 W/m2
07:54 32.3 °F 25.2 °F 29.93 in NW 0.2 mph 4 mph 74.6% 0.00 in 63 W/m2
07:59 32.8 °F 25.2 °F 29.93 in NW 0.1 mph 4 mph 73.3% 0.00 in 111 W/m2
08:00 33 °F 25.3 °F 29.93 in Calm   4 mph 73% 0.00 in 111 W/m2
08:09 33.7 °F 25.7 °F 29.93 in NW 0.4 mph 4 mph 72% 0.00 in 200 W/m2
08:14 34.4 °F 26 °F 29.93 in NW 1 mph 6 mph 71% 0.00 in 232 W/m2
08:19 35.3 °F 26.3 °F 29.93 in NW 2.2 mph 9 mph 69.5% 0.00 in 244 W/m2
08:24 36.1 °F 26.4 °F 29.93 in North 1.2 mph 9 mph 67.7% 0.00 in 253 W/m2
08:29 36.8 °F 26.7 °F 29.93 in North 2 mph 9 mph 66.6% 0.00 in 267 W/m2
08:34 37.4 °F 26.3 °F 29.93 in NW 2.8 mph 9 mph 63.8% 0.00 in 269 W/m2
08:39 37.7 °F 26.2 °F 29.93 in NW 1.8 mph 9 mph 63% 0.00 in 278 W/m2
08:44 38 °F 26.3 °F 29.92 in NW 1.5 mph 9 mph 62.5% 0.00 in 294 W/m2
08:49 38.2 °F 26 °F 29.92 in NW 4.3 mph 12 mph 61.2% 0.00 in 288 W/m2
08:54 37.9 °F 25.6 °F 29.92 in NW 3.4 mph 13 mph 60.7% 0.00 in 221 W/m2
08:59 37.4 °F 24.9 °F 29.92 in NW 5.4 mph 13 mph 60.2% 0.00 in 144 W/m2
09:04 36.9 °F 24.4 °F 29.92 in NW 4.8 mph 14 mph 60.3% 0.00 in 232 W/m2
09:09 36.5 °F 24.5 °F 29.92 in NW 5.5 mph 14 mph 61.3% 0.00 in 132 W/m2
09:14 36.2 °F 24.1 °F 29.91 in NW 4.3 mph 14 mph 61% 0.00 in 153 W/m2
09:19 36.2 °F 24.3 °F 29.91 in NW 5.6 mph 14 mph 61.7% 0.00 in 192 W/m2
09:24 36.2 °F 24.3 °F 29.91 in NW 4.8 mph 14 mph 61.6% 0.00 in 227 W/m2
09:30 36.6 °F 24.4 °F 29.91 in NW 5 mph 14 mph 61% 0.00 in 141 W/m2
10:00 37.9 °F 24 °F 29.92 in WNW 4 mph 14 mph 57% 0.00 in 175 W/m2
10:30 40.6 °F 22 °F 29.92 in NW 6 mph 25 mph 47% 0.00 in 434 W/m2
11:00 40.5 °F 20.9 °F 29.91 in NW 8 mph 26 mph 45% 0.00 in 309 W/m2
11:30 41 °F 21.3 °F 29.91 in NW 7 mph 21 mph 45% 0.00 in 124 W/m2
12:04 41.4 °F 20.6 °F 29.91 in NNW 5.5 mph 21 mph 43.1% 0.00 in 195 W/m2
12:09 41.4 °F 20.4 °F 29.90 in NW 6.9 mph 17 mph 42.6% 0.00 in 318 W/m2
12:14 41.4 °F 20.3 °F 29.90 in NW 7.2 mph 20 mph 42.5% 0.00 in 315 W/m2
12:19 41.4 °F 20.2 °F 29.90 in NW 10 mph 20 mph 42.3% 0.00 in 70 W/m2
12:24 41.1 °F 19.6 °F 29.90 in NW 11.1 mph 23 mph 41.7% 0.00 in 169 W/m2
12:29 40.8 °F 19.2 °F 29.90 in WNW 12 mph 23 mph 41.5% 0.00 in 169 W/m2
12:34 40.7 °F 19.5 °F 29.90 in NW 7.4 mph 23 mph 42% 0.00 in 158 W/m2
12:39 40.9 °F 19.7 °F 29.90 in NW 8.1 mph 18 mph 42.2% 0.00 in 58 W/m2
12:44 41.1 °F 19.7 °F 29.90 in NNW 6.7 mph 26 mph 41.8% 0.00 in 65 W/m2
12:49 41.3 °F 18.9 °F 29.90 in NNW 9.4 mph 26 mph 40.2% 0.00 in 130 W/m2
12:54 41.1 °F 18.6 °F 29.90 in NNW 8.9 mph 26 mph 40% 0.00 in 383 W/m2
12:59 41 °F 18.5 °F 29.90 in NNW 8 mph 26 mph 40% 0.00 in 422 W/m2
13:04 40.8 °F 18.2 °F 29.90 in NW 9.9 mph 26 mph 39.8% 0.00 in 316 W/m2
13:09 40.7 °F 18.2 °F 29.90 in NW 8.9 mph 25 mph 39.9% 0.00 in 316 W/m2
13:14 40.7 °F 18.1 °F 29.90 in NW 10.2 mph 25 mph 39.8% 0.00 in 193 W/m2
13:19 40.6 °F 18.1 °F 29.90 in NNW 7.3 mph 25 mph 39.8% 0.00 in 39 W/m2
13:24 40.6 °F 18.1 °F 29.90 in NNW 10.2 mph 25 mph 39.8% 0.00 in 40 W/m2
13:29 40.6 °F 18 °F 29.90 in NNW 8.1 mph 25 mph 39.5% 0.00 in 114 W/m2
13:34 40.7 °F 17.9 °F 29.90 in NW 8.8 mph 25 mph 39.3% 0.00 in 243 W/m2
13:39 40.6 °F 17.6 °F 29.90 in NNW 10.7 mph 23 mph 39% 0.00 in 167 W/m2
13:44 40.5 °F 17.9 °F 29.90 in NNW 8.3 mph 23 mph 39.7% 0.00 in 185 W/m2
13:49 40.7 °F 18.2 °F 29.90 in NW 7 mph 23 mph 39.9% 0.00 in 332 W/m2
13:54 40.9 °F 18.3 °F 29.91 in NW 7.2 mph 23 mph 39.9% 0.00 in 332 W/m2
13:59 40.9 °F 18.1 °F 29.91 in NW 6.6 mph 23 mph 39.4% 0.00 in 195 W/m2
14:04 40.9 °F 18.5 °F 29.91 in NW 4.4 mph 23 mph 40.2% 0.00 in 125 W/m2
14:09 41 °F 18.9 °F 29.91 in NW 4.7 mph 13 mph 40.7% 0.00 in 104 W/m2
14:14 41 °F 18.9 °F 29.91 in NW 4.5 mph 13 mph 40.8% 0.00 in 67 W/m2
14:19 40.8 °F 19.1 °F 29.91 in WNW 3.1 mph 13 mph 41.2% 0.00 in 40 W/m2
14:24 40.7 °F 19.2 °F 29.91 in NW 7 mph 18 mph 41.7% 0.00 in 95 W/m2
14:29 40.5 °F 18.7 °F 29.91 in WNW 7.8 mph 20 mph 41.2% 0.00 in 104 W/m2
14:34 40.3 °F 18.7 °F 29.92 in WNW 8 mph 20 mph 41.3% 0.00 in 30 W/m2
14:39 40.1 °F 18.9 °F 29.92 in NW 3.8 mph 16 mph 42% 0.00 in 28 W/m2
14:44 40.1 °F 18.7 °F 29.92 in NNW 4.5 mph 19 mph 41.7% 0.00 in 28 W/m2
14:49 40 °F 18.6 °F 29.92 in NW 6 mph 19 mph 41.7% 0.00 in 26 W/m2
14:54 39.9 °F 18.8 °F 29.92 in WNW 3.5 mph 19 mph 42.3% 0.00 in 26 W/m2
14:59 39.8 °F 18.9 °F 29.93 in NNW 3.9 mph 19 mph 42.7% 0.00 in 25 W/m2
15:04 39.7 °F 19.1 °F 29.93 in NW 7 mph 19 mph 43% 0.00 in 25 W/m2
15:09 39.7 °F 18.8 °F 29.93 in NW 4.2 mph 15 mph 42.5% 0.00 in 23 W/m2
15:14 39.6 °F 18.9 °F 29.93 in NW 5.8 mph 19 mph 42.9% 0.00 in 23 W/m2
15:19 39.4 °F 18.8 °F 29.94 in NW 6.4 mph 19 mph 43% 0.00 in 21 W/m2
15:24 39.3 °F 19 °F 29.94 in NW 7 mph 19 mph 43.7% 0.00 in 21 W/m2
15:29 39.1 °F 19.1 °F 29.94 in WNW 6.7 mph 19 mph 44% 0.00 in 19 W/m2
15:34 38.9 °F 18.6 °F 29.94 in WNW 6.8 mph 19 mph 43.5% 0.00 in 18 W/m2
15:39 38.8 °F 19 °F 29.94 in NW 3.9 mph 16 mph 44.4% 0.00 in 18 W/m2
15:44 38.7 °F 19.2 °F 29.95 in NW 3.9 mph 16 mph 45% 0.00 in 16 W/m2
15:49 38.5 °F 19.1 °F 29.95 in NW 8 mph 16 mph 45% 0.00 in 14 W/m2
15:54 38.3 °F 18.9 °F 29.95 in NW 6.4 mph 16 mph 45% 0.00 in 14 W/m2
15:59 38.2 °F 18.7 °F 29.96 in NW 5.7 mph 16 mph 45% 0.00 in 12 W/m2
16:04 37.9 °F 19.5 °F 29.96 in West 10 mph 10 mph 47% 0.00 in 11 W/m2
16:09 37.8 °F 19.4 °F 29.96 in NW 7.7 mph 18 mph 47% 0.00 in 11 W/m2
16:14 37.6 °F 19.2 °F 29.96 in NW 6.1 mph 18 mph 47% 0.00 in 7 W/m2
16:19 37.4 °F 19.2 °F 29.97 in WNW 8.6 mph 20 mph 47.3% 0.00 in 5 W/m2
16:24 37.2 °F 19.3 °F 29.97 in NW 5.7 mph 20 mph 47.9% 0.00 in 0 W/m2
16:29 37 °F 19.4 °F 29.97 in WNW 3.8 mph 20 mph 48.4% 0.00 in 0 W/m2
16:34 36.8 °F 19.5 °F 29.98 in WNW 4.5 mph 20 mph 49% 0.00 in 0 W/m2
16:39 36.6 °F 19.4 °F 29.98 in NW 3.6 mph 14 mph 49.3% 0.00 in 0 W/m2
16:44 36.4 °F 19.6 °F 29.98 in WNW 7.5 mph 15 mph 50% 0.00 in 0 W/m2
16:49 36.3 °F 19.6 °F 29.98 in WNW 5.2 mph 15 mph 50.3% 0.00 in 0 W/m2
16:54 36.1 °F 19.7 °F 29.99 in NW 7.9 mph 17 mph 51% 0.00 in 0 W/m2
16:59 36 °F 19.6 °F 29.99 in WNW 9 mph 17 mph 51% 0.00 in 0 W/m2
17:04 35.9 °F 19.7 °F 29.99 in WNW 4.9 mph 17 mph 51.3% 0.00 in 0 W/m2
17:09 35.7 °F 19.6 °F 29.99 in NW 9.3 mph 20 mph 51.3% 0.00 in 0 W/m2
17:14 35.6 °F 19.7 °F 30.00 in NW 5.5 mph 20 mph 51.9% 0.00 in 0 W/m2
17:19 35.5 °F 19.6 °F 30.00 in WNW 6.1 mph 20 mph 52% 0.00 in 0 W/m2
17:24 35.4 °F 19.7 °F 30.01 in WNW 4.8 mph 20 mph 52.3% 0.00 in 0 W/m2
17:29 35.3 °F 19.8 °F 30.01 in WNW 4 mph 20 mph 53% 0.00 in 0 W/m2
17:34 35.1 °F 19.7 °F 30.01 in NW 8.4 mph 24 mph 53% 0.00 in 0 W/m2
17:39 35 °F 19.7 °F 30.01 in WNW 5 mph 24 mph 53% 0.00 in 0 W/m2
17:44 34.9 °F 19.6 °F 30.01 in NW 8 mph 24 mph 53% 0.00 in 0 W/m2
17:49 34.9 °F 19.7 °F 30.01 in NW 5.6 mph 24 mph 53.5% 0.00 in 0 W/m2
17:54 34.8 °F 19.8 °F 30.01 in NW 7.9 mph 24 mph 54% 0.00 in 0 W/m2
17:59 34.7 °F 19.7 °F 30.01 in NW 7.9 mph 24 mph 54% 0.00 in 0 W/m2
18:04 34.6 °F 19.7 °F 30.01 in NW 3.9 mph 24 mph 54% 0.00 in 0 W/m2
18:09 34.5 °F 19.8 °F 30.01 in NW 5.8 mph 14 mph 54.6% 0.00 in 0 W/m2
18:14 34.4 °F 19.9 °F 30.01 in NW 4.7 mph 14 mph 55% 0.00 in 0 W/m2
18:19 34.2 °F 19.8 °F 30.01 in NW 4.6 mph 14 mph 55% 0.00 in 0 W/m2
18:24 34.1 °F 20 °F 30.01 in NW 5.1 mph 14 mph 55.8% 0.00 in 0 W/m2
18:29 34 °F 20 °F 30.02 in WNW 2.7 mph 14 mph 56% 0.00 in 0 W/m2
18:34 33.9 °F 19.9 °F 30.02 in WNW 5.5 mph 14 mph 56% 0.00 in 0 W/m2
18:39 33.8 °F 19.9 °F 30.02 in WNW 6.4 mph 16 mph 56.3% 0.00 in 0 W/m2
18:44 33.7 °F 19.7 °F 30.02 in WNW 7.6 mph 16 mph 56.1% 0.00 in 0 W/m2
18:49 33.7 °F 19.7 °F 30.02 in WNW 5.3 mph 16 mph 56% 0.00 in 0 W/m2
18:54 33.6 °F 19.7 °F 30.02 in WNW 5.8 mph 16 mph 56.3% 0.00 in 0 W/m2
18:59 33.5 °F 19.8 °F 30.03 in WNW 4.3 mph 16 mph 56.7% 0.00 in 0 W/m2
19:04 33.4 °F 19.8 °F 30.03 in WNW 4.9 mph 16 mph 57% 0.00 in 0 W/m2
19:09 33.3 °F 19.7 °F 30.03 in WNW 4.9 mph 12 mph 57% 0.00 in 0 W/m2
19:14 33.2 °F 19.9 °F 30.03 in WNW 3.7 mph 12 mph 57.7% 0.00 in 0 W/m2
19:19 33.2 °F 19.6 °F 30.04 in NW 1.6 mph 12 mph 57% 0.00 in 0 W/m2
19:24 33 °F 19.5 °F 30.04 in NW 2.2 mph 12 mph 57% 0.00 in 0 W/m2
19:29 32.9 °F 19.3 °F 30.04 in NW 1.9 mph 12 mph 57% 0.00 in 0 W/m2
19:34 32.8 °F 19.3 °F 30.04 in WNW 2.1 mph 12 mph 57.3% 0.00 in 0 W/m2
19:39 32.6 °F 19.5 °F 30.05 in NW 4.3 mph 10 mph 58% 0.00 in 0 W/m2
19:44 32.5 °F 19.4 °F 30.05 in NW 3 mph 11 mph 58% 0.00 in 0 W/m2
19:49 32.5 °F 19.3 °F 30.05 in NW 1.6 mph 11 mph 57.9% 0.00 in 0 W/m2
19:54 32.5 °F 19.3 °F 30.05 in NW 0.8 mph 11 mph 57.8% 0.00 in 0 W/m2
19:59 32.4 °F 19.3 °F 30.05 in NW 3.7 mph 12 mph 58% 0.00 in 0 W/m2
20:00 32.4 °F 19.3 °F 30.05 in West 3 mph 12 mph 58% 0.00 in 0 W/m2
20:09 32.4 °F 19.6 °F 30.06 in NW 4 mph 14 mph 58.8% 0.00 in 0 W/m2
20:14 32.4 °F 19.3 °F 30.06 in NW 3.9 mph 14 mph 58% 0.00 in 0 W/m2
20:19 32.5 °F 19.6 °F 30.06 in NW 3.3 mph 15 mph 58.5% 0.00 in 0 W/m2
20:24 32.5 °F 19.7 °F 30.06 in NW 4.9 mph 15 mph 58.8% 0.00 in 0 W/m2
20:29 32.4 °F 19.5 °F 30.06 in NW 3.6 mph 15 mph 58.5% 0.00 in 0 W/m2
20:34 32.4 °F 19.9 °F 30.06 in NW 1.7 mph 15 mph 59.4% 0.00 in 0 W/m2
20:39 32.4 °F 20.1 °F 30.06 in NW 1.7 mph 9 mph 60% 0.00 in 0 W/m2
20:44 32.4 °F 20 °F 30.06 in NNW 1.2 mph 9 mph 60% 0.00 in 0 W/m2
20:49 32.3 °F 19.7 °F 30.06 in NW 1.3 mph 9 mph 59.4% 0.00 in 0 W/m2
20:53 32.2 °F 19.9 °F 30.06 in NW 3.5 mph 9 mph 60% 0.00 in 0 W/m2
20:59 32.1 °F 19.4 °F 30.06 in Calm   9 mph 59% 0.00 in 0 W/m2
21:04 32 °F 19.5 °F 30.07 in NNW 1.8 mph 9 mph 59.6% 0.00 in 0 W/m2
21:09 31.8 °F 19.5 °F 30.07 in North 1.3 mph 7 mph 60% 0.00 in 0 W/m2
21:14 31.6 °F 19.5 °F 30.07 in NW 2.2 mph 10 mph 60.5% 0.00 in 0 W/m2
21:19 31.4 °F 19.6 °F 30.07 in NW 2.5 mph 10 mph 61% 0.00 in 0 W/m2
21:24 31.3 °F 19.5 °F 30.07 in WNW 3.3 mph 10 mph 61.1% 0.00 in 0 W/m2
21:29 31.3 °F 19.8 °F 30.07 in WNW 3.3 mph 10 mph 62% 0.00 in 0 W/m2
21:34 31.2 °F 19.7 °F 30.08 in WNW 5.1 mph 14 mph 62% 0.00 in 0 W/m2
21:39 31.2 °F 20 °F 30.08 in NW 4.1 mph 14 mph 62.7% 0.00 in 0 W/m2
21:44 31.2 °F 20.1 °F 30.08 in NW 6.1 mph 14 mph 63% 0.00 in 0 W/m2
21:49 31.2 °F 20.1 °F 30.08 in NW 5.8 mph 18 mph 63% 0.00 in 0 W/m2
21:54 31.2 °F 20.1 °F 30.08 in NW 7.1 mph 18 mph 63% 0.00 in 0 W/m2
21:59 31.2 °F 20.1 °F 30.08 in NW 5.4 mph 18 mph 63% 0.00 in 0 W/m2
22:04 31.2 °F 20.1 °F 30.08 in NW 4.4 mph 19 mph 63% 0.00 in 0 W/m2
22:09 31.2 °F 20.4 °F 30.09 in NW 3.7 mph 19 mph 63.9% 0.00 in 0 W/m2
22:14 31.1 °F 20.4 °F 30.09 in NW 4.8 mph 19 mph 64% 0.00 in 0 W/m2
22:19 31.1 °F 20.4 °F 30.09 in NW 0.5 mph 19 mph 64% 0.00 in 0 W/m2
22:24 31 °F 20.3 °F 30.09 in NW 2.1 mph 19 mph 64% 0.00 in 0 W/m2
22:29 31 °F 20.2 °F 30.09 in NW 0.2 mph 19 mph 64% 0.00 in 0 W/m2
22:34 30.9 °F 20.2 °F 30.09 in NNW 3.3 mph 19 mph 64% 0.00 in 0 W/m2
22:39 30.8 °F 20.1 °F 30.09 in NW 3 mph 13 mph 64% 0.00 in 0 W/m2
22:44 30.8 °F 20.2 °F 30.10 in NW 2.6 mph 13 mph 64.4% 0.00 in 0 W/m2
22:49 30.7 °F 20.1 °F 30.09 in NW 2.3 mph 13 mph 64.5% 0.00 in 0 W/m2
22:54 30.6 °F 19.9 °F 30.10 in NW 1 mph 13 mph 64% 0.00 in 0 W/m2
22:59 30.5 °F 19.8 °F 30.10 in NW 1.1 mph 13 mph 64% 0.00 in 0 W/m2
23:00 30.4 °F 19.7 °F 30.10 in NW 2 mph 13 mph 64% 0.00 in 0 W/m2
23:09 30.3 °F 19.7 °F 30.10 in NW 1.6 mph 5 mph 64.3% 0.00 in 0 W/m2
23:14 30.2 °F 19.9 °F 30.10 in NW 1.3 mph 6 mph 65% 0.00 in 0 W/m2
23:19 30.1 °F 19.8 °F 30.10 in NW 3.4 mph 7 mph 65% 0.00 in 0 W/m2
23:24 30.1 °F 19.7 °F 30.10 in NW 1.6 mph 7 mph 64.8% 0.00 in 0 W/m2
23:29 30 °F 19.7 °F 30.10 in NW 1.2 mph 7 mph 65% 0.00 in 0 W/m2
23:34 29.9 °F 19.6 °F 30.10 in NW 3.3 mph 7 mph 65% 0.00 in 0 W/m2
23:39 29.9 °F 19.5 °F 30.10 in NW 2.7 mph 8 mph 64.9% 0.00 in 0 W/m2
23:44 29.9 °F 19.4 °F 30.10 in NW 4.1 mph 13 mph 64.4% 0.00 in 0 W/m2
23:49 29.9 °F 19.6 °F 30.10 in NW 2.1 mph 13 mph 65% 0.00 in 0 W/m2
23:54 29.9 °F 19.5 °F 30.10 in NW 2.1 mph 13 mph 64.7% 0.00 in 0 W/m2
23:59 29.8 °F 19.5 °F 30.10 in NW 2 mph 13 mph 65% 0.00 in 0 W/m2
Hartford County Weather
Compliments of Weather Underground - 2 mb